Kanaloa — ZCCN — position and weather

sailwx.info

Track history (hours):
 
Tides and Currents Weather Stations Pressure Air Temp Water Temp Dewpoint Dewpoint Depression Visibility Wind Speed Wind Dir Waves Ship Positions

Kanaloa

Last reported at 2017-Nov-19 01:22 UTC. Time now 2017-Nov-22 22:18 UTC.
Position N 38°10' E 016°18'.

Length 48 m.

Type: Pleasure craft. MMSI: 319093000.

Date/timePositionNaut miles runAvg speedWind from/ knotsBaromVisibWave heightAir tempDewpointWater temp
2017-Nov-19 01:22N 38°10' E 016°18'2313.7
2017-Nov-18 23:42N 37°52' E 015°59'314.5
2017-Nov-18 23:30N 37°52' E 015°56'714.2
2017-Nov-18 23:00N 37°52' E 015°47'713.8
2017-Nov-18 22:30N 37°54' E 015°38'713.8
2017-Nov-18 22:00N 37°60' E 015°33'714.2
2017-Nov-18 21:31N 38°07' E 015°34'815.2
2017-Nov-18 21:01N 38°14' E 015°36'510.7
2017-Nov-18 20:30N 38°19' E 015°39'714.1
2017-Nov-18 20:00N 38°25' E 015°36'715.0
2017-Nov-18 19:30N 38°32' E 015°30'714.9
2017-Nov-18 19:00N 38°38' E 015°26'814.9
2017-Nov-18 18:29N 38°45' E 015°21'12714.8
2017-Nov-18 09:55N 40°34' E 013°59'20611.9
2017-Nov-17 16:37N 42°36' E 010°16'7012.7
2017-Nov-17 11:05N 43°20' E 009°01'214.2
2017-Nov-17 10:55N 43°22' E 008°59'714.2
2017-Nov-17 10:27N 43°26' E 008°52'714.1
2017-Nov-17 09:59N 43°30' E 008°45'1113.9
2017-Nov-17 09:13N 43°36' E 008°33'  
Track history (hours):
 
Tides and Currents Weather Stations Pressure Air Temp Water Temp Dewpoint Dewpoint Depression Visibility Wind Speed Wind Dir Waves Ship Positions

Kanaloa

Last reported at 2017-Nov-19 01:22 UTC. Time now 2017-Nov-22 22:18 UTC.
Position N 38°10' E 016°18'.

Length 48 m.

Type: Pleasure craft. MMSI: 319093000.

Date/timePositionNaut miles runAvg speedWind from/ knotsBaromVisibWave heightAir tempDewpointWater temp
2017-Nov-19 01:22N 38°10' E 016°18'2313.7
2017-Nov-18 23:42N 37°52' E 015°59'314.5
2017-Nov-18 23:30N 37°52' E 015°56'714.2
2017-Nov-18 23:00N 37°52' E 015°47'713.8
2017-Nov-18 22:30N 37°54' E 015°38'713.8
2017-Nov-18 22:00N 37°60' E 015°33'714.2
2017-Nov-18 21:31N 38°07' E 015°34'815.2
2017-Nov-18 21:01N 38°14' E 015°36'510.7
2017-Nov-18 20:30N 38°19' E 015°39'714.1
2017-Nov-18 20:00N 38°25' E 015°36'715.0
2017-Nov-18 19:30N 38°32' E 015°30'714.9
2017-Nov-18 19:00N 38°38' E 015°26'814.9
2017-Nov-18 18:29N 38°45' E 015°21'12714.8
2017-Nov-18 09:55N 40°34' E 013°59'20611.9
2017-Nov-17 16:37N 42°36' E 010°16'7012.7
2017-Nov-17 11:05N 43°20' E 009°01'214.2
2017-Nov-17 10:55N 43°22' E 008°59'714.2
2017-Nov-17 10:27N 43°26' E 008°52'714.1
2017-Nov-17 09:59N 43°30' E 008°45'1113.9
2017-Nov-17 09:13N 43°36' E 008°33'  

Dump ship's entire track history